Time;durP1;ratioP1;P1;durP2;ratioP2;P2;SDS_P1;SDS_P2;PMS_P1;PMS_P2;Temp;Humidity;BMP_temperature;BMP_pressure;BME280_temperature;BME280_humidity;BME280_pressure;Samples;Min_cycle;Max_cycle;Signal;HPM_P1;HPM_P2
2023/05/18 00:05:18;;;;;;;3.30;2.80;;;;;;;22.10;53.18;100334.03;39968845;29;20050;-74
2023/05/18 00:25:19;;;;;;;3.03;2.72;;;;;;;22.09;53.28;100345.53;39967881;29;20123;-75
2023/05/18 00:45:19;;;;;;;3.08;2.67;;;;;;;22.11;53.47;100356.00;39959257;29;20110;-75
2023/05/18 01:05:20;;;;;;;2.60;2.30;;;;;;;22.07;53.16;100356.22;39961886;29;20061;-74
2023/05/18 01:25:33;;;;;;;2.40;2.20;;;;;;;22.04;53.06;100364.38;39944983;29;20414;-75
2023/05/18 01:45:36;;;;;;;2.13;1.92;;;;;;;22.04;52.98;100379.38;39955250;29;20042;-75
2023/05/18 02:05:36;;;;;;;2.00;1.90;;;;;;;22.03;53.25;100383.81;39953196;29;20050;-74
2023/05/18 02:25:38;;;;;;;1.95;1.77;;;;;;;22.03;53.04;100409.34;39949560;29;20058;-74
2023/05/18 02:45:39;;;;;;;2.00;1.80;;;;;;;22.00;52.85;100418.34;39943781;29;20049;-74
2023/05/18 03:05:40;;;;;;;1.80;1.70;;;;;;;22.00;53.21;100422.78;39946605;29;20062;-74
2023/05/18 03:25:42;;;;;;;1.50;1.40;;;;;;;21.99;52.75;100431.66;39967586;29;20050;-75
2023/05/18 03:45:42;;;;;;;1.60;1.50;;;;;;;21.98;53.02;100445.78;39942904;29;20465;-76
2023/05/18 04:05:43;;;;;;;1.45;1.33;;;;;;;21.98;53.71;100457.16;39933997;29;20060;-75
2023/05/18 04:25:44;;;;;;;4.10;1.83;;;;;;;22.04;54.40;100471.66;39907458;29;20051;-77
2023/05/18 04:45:45;;;;;;;9.82;3.03;;;;;;;22.07;55.71;100479.34;39922822;29;20503;-77
2023/05/18 05:05:45;;;;;;;5.97;2.25;;;;;;;21.57;51.04;100493.72;39895030;29;20053;-78
2023/05/18 05:25:46;;;;;;;4.53;1.60;;;;;;;21.82;52.58;100510.25;39930842;29;20057;-76
2023/05/18 05:45:46;;;;;;;3.72;1.58;;;;;;;21.93;53.92;100516.50;39947412;29;20045;-75
2023/05/18 06:05:47;;;;;;;3.50;1.23;;;;;;;22.00;54.50;100539.63;39906974;29;20045;-75
2023/05/18 06:25:48;;;;;;;3.38;1.10;;;;;;;22.00;55.09;100551.97;39912590;29;20391;-76
2023/05/18 06:45:49;;;;;;;3.17;1.05;;;;;;;22.03;55.23;100565.75;39946039;29;20122;-75
2023/05/18 07:05:49;;;;;;;1.48;0.95;;;;;;;22.03;55.07;100578.94;39927914;29;20054;-78
2023/05/18 07:25:50;;;;;;;2.60;1.02;;;;;;;22.08;54.86;100597.03;39921037;29;20277;-76
2023/05/18 07:45:51;;;;;;;1.13;0.80;;;;;;;22.12;54.82;100616.06;39917801;29;20170;-76
2023/05/18 08:05:52;;;;;;;2.45;0.93;;;;;;;22.10;55.08;100620.66;39940299;29;20054;-75
2023/05/18 08:25:52;;;;;;;1.55;1.02;;;;;;;22.15;55.14;100635.16;39998383;29;20493;-76
2023/05/18 08:46:17;;;;;;;1.17;0.90;;;;;;;22.22;54.98;100635.53;40043842;29;20054;-76
2023/05/18 09:06:23;;;;;;;1.73;1.00;;;;;;;22.34;54.87;100633.72;40009507;29;20064;-77
2023/05/18 09:26:23;;;;;;;1.00;0.90;;;;;;;22.44;54.63;100634.69;40021642;29;20057;-75
2023/05/18 09:46:24;;;;;;;1.70;0.90;;;;;;;22.53;54.11;100646.31;39969996;29;20057;-82
2023/05/18 10:06:26;;;;;;;1.05;0.90;;;;;;;22.62;54.46;100642.97;39945191;29;20046;-82
2023/05/18 10:26:31;;;;;;;1.90;0.95;;;;;;;22.68;54.13;100642.47;39992538;29;20402;-81
2023/05/18 10:46:33;;;;;;;3.30;1.20;;;;;;;22.70;53.93;100647.63;39965396;29;20056;-81
2023/05/18 11:06:34;;;;;;;0.95;0.80;;;;;;;22.61;53.89;100643.91;39978340;29;20054;-81
2023/05/18 11:26:56;;;;;;;1.58;0.70;;;;;;;22.54;54.04;100666.47;39932067;29;20097;-81
2023/05/18 11:47:04;;;;;;;1.20;0.57;;;;;;;22.46;54.22;100672.38;39978827;29;20054;-81
2023/05/18 12:07:06;;;;;;;1.02;0.80;;;;;;;22.40;53.83;100675.50;39989260;29;20057;-80
2023/05/18 12:27:11;;;;;;;1.40;0.80;;;;;;;22.35;53.55;100675.81;40000046;29;20121;-78
2023/05/18 12:47:12;;;;;;;1.37;0.77;;;;;;;22.35;53.82;100669.69;39988610;29;20111;-78
2023/05/18 13:07:13;;;;;;;1.05;0.50;;;;;;;22.28;54.06;100668.50;39992156;29;20072;-80
2023/05/18 13:27:13;;;;;;;1.02;0.70;;;;;;;22.31;53.95;100671.72;39989222;29;20046;-78
2023/05/18 13:47:14;;;;;;;0.73;0.60;;;;;;;22.29;53.80;100673.66;39942722;29;20052;-78
2023/05/18 14:07:14;;;;;;;0.60;0.60;;;;;;;22.28;54.02;100687.81;39976918;29;20062;-79
2023/05/18 14:27:15;;;;;;;2.35;0.70;;;;;;;22.26;53.88;100696.78;39952599;29;20414;-81
2023/05/18 14:47:16;;;;;;;4.07;0.73;;;;;;;22.34;54.82;100700.50;39977762;29;20530;-81
2023/05/18 15:07:17;;;;;;;2.00;0.63;;;;;;;22.38;55.15;100711.69;39994993;29;20081;-80
2023/05/18 15:27:18;;;;;;;1.23;0.60;;;;;;;22.37;55.44;100713.47;39939935;29;20054;-81
2023/05/18 15:47:19;;;;;;;1.38;0.50;;;;;;;22.28;53.90;100714.19;39940722;29;20050;-77
2023/05/18 16:07:20;;;;;;;3.10;0.82;;;;;;;22.21;52.79;100718.25;39923158;29;20083;-78
2023/05/18 16:27:21;;;;;;;3.80;0.80;;;;;;;22.26;53.99;100728.44;39953426;29;20053;-79
2023/05/18 16:47:22;;;;;;;2.08;0.68;;;;;;;22.25;54.16;100734.69;39964687;29;20068;-77
2023/05/18 17:07:22;;;;;;;3.05;0.70;;;;;;;22.26;54.54;100734.56;39979236;29;20065;-77
2023/05/18 17:27:23;;;;;;;1.67;0.68;;;;;;;22.26;55.10;100746.91;39965740;29;20050;-84
2023/05/18 17:47:24;;;;;;;1.38;0.70;;;;;;;22.26;54.78;100734.56;39966944;29;20038;-80
2023/05/18 18:07:25;;;;;;;1.83;0.77;;;;;;;22.26;54.97;100739.81;39944778;29;20058;-79
2023/05/18 18:27:25;;;;;;;0.80;0.70;;;;;;;22.28;55.12;100779.31;39936511;29;20042;-79
2023/05/18 18:47:26;;;;;;;4.32;0.88;;;;;;;22.28;55.83;100784.56;39950864;29;20053;-80
2023/05/18 19:07:26;;;;;;;21.00;1.60;;;;;;;22.24;55.82;100805.06;39925823;29;20502;-77
2023/05/18 19:27:27;;;;;;;2.25;1.25;;;;;;;22.15;55.84;100821.56;39980960;29;20056;-77
2023/05/18 19:47:27;;;;;;;2.58;1.25;;;;;;;22.18;56.01;100848.56;39978393;29;20075;-78
2023/05/18 20:07:28;;;;;;;2.38;1.02;;;;;;;22.17;56.24;100864.50;39986265;29;20056;-77
2023/05/18 20:27:30;;;;;;;4.25;1.15;;;;;;;22.16;56.33;100886.56;39963030;29;20167;-77
2023/05/18 20:47:31;;;;;;;2.65;1.02;;;;;;;22.15;56.24;100884.88;39956813;29;20049;-77
2023/05/18 21:07:33;;;;;;;0.88;0.82;;;;;;;22.13;56.56;100890.28;39926332;29;20065;-77
2023/05/18 21:27:35;;;;;;;1.58;0.93;;;;;;;22.12;56.69;100900.91;39979279;29;20062;-77
2023/05/18 21:47:35;;;;;;;1.30;0.90;;;;;;;22.13;56.41;100905.25;39968822;29;20053;-76
2023/05/18 22:07:36;;;;;;;1.95;1.10;;;;;;;22.09;56.71;100914.34;39958739;29;20120;-77
2023/05/18 22:27:37;;;;;;;1.30;1.02;;;;;;;22.09;56.52;100916.97;39930178;29;20543;-78
2023/05/18 22:47:38;;;;;;;1.65;0.90;;;;;;;22.04;56.63;100907.59;39939477;29;20078;-78
2023/05/18 23:07:40;;;;;;;0.85;0.80;;;;;;;22.05;56.62;100908.44;39966280;29;20079;-76
2023/05/18 23:27:41;;;;;;;0.90;0.80;;;;;;;22.04;56.42;100912.84;39976662;29;20058;-78
2023/05/18 23:47:41;;;;;;;0.80;0.75;;;;;;;22.03;56.45;100923.53;39985720;29;20050;-76
